createdAt,value
2022-09-15T00:01:06.996Z,21.10
2022-09-15T00:03:34.467Z,21.10
2022-09-15T00:06:01.612Z,21.10
2022-09-15T00:08:29.156Z,21.10
2022-09-15T00:11:14.886Z,21.10
2022-09-15T00:13:42.000Z,21.10
2022-09-15T00:16:14.793Z,21.10
2022-09-15T00:18:43.838Z,21.10
2022-09-15T00:21:15.647Z,21.10
2022-09-15T00:23:43.074Z,21.10
2022-09-15T00:26:16.331Z,21.10
2022-09-15T00:28:44.127Z,21.10
2022-09-15T00:31:14.849Z,21.20
2022-09-15T00:33:42.603Z,21.20
2022-09-15T00:36:11.479Z,21.20
2022-09-15T00:38:38.791Z,21.20
2022-09-15T00:41:08.292Z,21.20
2022-09-15T00:44:01.757Z,21.20
2022-09-15T00:46:32.924Z,21.20
2022-09-15T00:49:17.511Z,21.20
2022-09-15T00:51:54.559Z,21.20
2022-09-15T00:54:46.240Z,21.20
2022-09-15T00:57:19.259Z,21.10
2022-09-15T00:59:49.155Z,21.10
2022-09-15T01:02:22.819Z,21.10
2022-09-15T01:04:57.399Z,21.00
2022-09-15T01:07:47.406Z,21.10
2022-09-15T01:10:25.885Z,21.10
2022-09-15T01:12:56.984Z,21.00
2022-09-15T01:15:29.588Z,21.00
2022-09-15T01:18:33.448Z,21.10
2022-09-15T01:21:33.740Z,21.10
2022-09-15T01:24:44.997Z,21.10
2022-09-15T01:27:41.536Z,21.10
2022-09-15T01:30:11.501Z,21.10
2022-09-15T01:33:07.539Z,21.10
2022-09-15T01:36:00.477Z,21.10
2022-09-15T01:38:46.201Z,21.10
2022-09-15T01:41:16.069Z,21.10
2022-09-15T01:43:52.915Z,21.10
2022-09-15T01:46:22.885Z,21.10
2022-09-15T01:48:53.642Z,21.10
2022-09-15T01:51:22.258Z,21.10
2022-09-15T01:53:50.342Z,21.10
2022-09-15T01:56:17.526Z,21.10
2022-09-15T01:58:44.787Z,21.10
2022-09-15T02:01:27.978Z,21.10
2022-09-15T02:04:18.433Z,21.10
2022-09-15T02:06:55.334Z,21.10
2022-09-15T02:09:29.015Z,21.10
2022-09-15T02:12:24.098Z,21.00
2022-09-15T02:15:03.418Z,21.00
2022-09-15T02:17:38.852Z,21.00
2022-09-15T02:20:17.702Z,21.10
2022-09-15T02:22:50.335Z,21.10
2022-09-15T02:25:22.662Z,21.20
2022-09-15T02:27:52.534Z,21.20
2022-09-15T02:30:20.703Z,21.10
2022-09-15T02:32:56.487Z,21.20
2022-09-15T02:35:25.859Z,21.20
2022-09-15T02:37:53.859Z,21.20
2022-09-15T02:40:21.752Z,21.20
2022-09-15T02:42:54.428Z,21.10
2022-09-15T02:45:22.965Z,21.10
2022-09-15T02:47:50.296Z,21.20
2022-09-15T02:50:17.939Z,21.20
2022-09-15T02:52:44.989Z,21.10
2022-09-15T02:55:12.474Z,21.20
2022-09-15T02:57:39.579Z,21.10
2022-09-15T03:00:14.339Z,21.10
2022-09-15T03:02:50.010Z,21.10
2022-09-15T03:05:19.451Z,21.10
2022-09-15T03:07:46.552Z,21.10
2022-09-15T03:10:14.629Z,21.00
2022-09-15T03:12:44.186Z,21.00
2022-09-15T03:15:13.557Z,21.00
2022-09-15T03:17:42.529Z,21.00
2022-09-15T03:20:12.712Z,21.00
2022-09-15T03:22:39.972Z,21.10
2022-09-15T03:25:08.004Z,21.10
2022-09-15T03:27:35.386Z,21.20
2022-09-15T03:30:03.124Z,21.10
2022-09-15T03:32:30.657Z,21.10
2022-09-15T03:34:59.563Z,21.10
2022-09-15T03:37:26.983Z,21.20
2022-09-15T03:39:54.123Z,21.10
2022-09-15T03:42:21.341Z,21.20
2022-09-15T03:44:48.416Z,21.20
2022-09-15T03:47:15.624Z,21.10
2022-09-15T03:49:42.708Z,21.20
2022-09-15T03:52:09.998Z,21.20
2022-09-15T03:54:37.034Z,21.10
2022-09-15T03:57:04.317Z,21.20
2022-09-15T03:59:31.417Z,21.20
2022-09-15T04:01:58.563Z,21.20
2022-09-15T04:04:25.649Z,21.20
2022-09-15T04:06:53.130Z,21.10
2022-09-15T04:09:21.390Z,21.20
2022-09-15T04:11:48.515Z,21.20
2022-09-15T04:14:15.565Z,21.10
2022-09-15T04:16:42.660Z,21.10
2022-09-15T04:19:09.870Z,21.10
2022-09-15T04:21:36.935Z,21.00
2022-09-15T04:24:05.778Z,21.00
2022-09-15T04:26:35.581Z,21.00
2022-09-15T04:29:05.089Z,21.00
2022-09-15T04:31:33.728Z,21.00
2022-09-15T04:34:01.121Z,21.00
2022-09-15T04:36:29.060Z,21.00
2022-09-15T04:38:57.085Z,21.00
2022-09-15T04:41:25.574Z,21.00
2022-09-15T04:43:53.025Z,21.00
2022-09-15T04:46:20.678Z,21.00
2022-09-15T04:48:48.683Z,21.10
2022-09-15T04:51:18.221Z,21.10
2022-09-15T04:53:45.913Z,21.10
2022-09-15T04:56:16.082Z,21.10
2022-09-15T04:58:45.999Z,21.10
2022-09-15T05:01:18.933Z,21.10
2022-09-15T05:03:46.666Z,21.10
2022-09-15T05:06:16.571Z,21.10
2022-09-15T05:08:46.742Z,21.10
2022-09-15T05:11:13.987Z,21.10
2022-09-15T05:13:41.103Z,21.10
2022-09-15T05:16:11.978Z,21.10
2022-09-15T05:18:41.099Z,21.10
2022-09-15T05:21:09.637Z,21.10
2022-09-15T05:23:37.340Z,21.10
2022-09-15T05:26:07.843Z,21.10
2022-09-15T05:28:36.784Z,21.10
2022-09-15T05:31:13.120Z,21.10
2022-09-15T05:33:40.446Z,21.10
2022-09-15T05:36:07.757Z,21.10
2022-09-15T05:38:35.308Z,21.10
2022-09-15T05:41:12.180Z,21.10
2022-09-15T05:43:40.099Z,21.10
2022-09-15T05:46:07.614Z,21.10
2022-09-15T05:48:35.208Z,21.10
2022-09-15T05:51:03.388Z,21.10
2022-09-15T05:53:31.068Z,21.10
2022-09-15T05:56:00.014Z,21.10
2022-09-15T05:58:27.552Z,21.10
2022-09-15T06:00:55.488Z,21.10
2022-09-15T06:03:27.492Z,21.10
2022-09-15T06:06:01.796Z,21.10
2022-09-15T06:08:37.407Z,21.10
2022-09-15T06:11:07.834Z,21.10
2022-09-15T06:13:35.309Z,21.10
2022-09-15T06:16:14.328Z,21.10
2022-09-15T06:18:41.934Z,21.10
2022-09-15T06:21:15.617Z,21.10
2022-09-15T06:23:46.035Z,21.00
2022-09-15T06:26:19.177Z,20.70
2022-09-15T06:29:00.791Z,20.40
2022-09-15T06:31:29.741Z,20.20
2022-09-15T06:33:57.600Z,20.10
2022-09-15T06:36:28.379Z,20.10
2022-09-15T06:38:56.110Z,20.30
2022-09-15T06:41:23.435Z,20.40
2022-09-15T06:43:51.119Z,20.60
2022-09-15T06:46:21.220Z,20.70
2022-09-15T06:48:48.816Z,20.70
2022-09-15T06:51:17.940Z,20.80
2022-09-15T06:53:45.818Z,20.90
2022-09-15T06:56:18.521Z,20.90
2022-09-15T06:58:46.573Z,21.00
2022-09-15T07:01:20.222Z,21.00
2022-09-15T07:03:47.911Z,21.00
2022-09-15T07:06:15.024Z,21.00
2022-09-15T07:08:42.474Z,21.00
2022-09-15T07:11:10.277Z,21.10
2022-09-15T07:13:38.011Z,21.10
2022-09-15T07:16:08.235Z,21.10
2022-09-15T07:18:39.722Z,21.10
2022-09-15T07:21:12.619Z,21.10
2022-09-15T07:23:39.930Z,21.10
2022-09-15T07:26:10.131Z,21.10
2022-09-15T07:28:38.055Z,21.10
2022-09-15T07:31:07.439Z,21.10
2022-09-15T07:33:35.239Z,21.10
2022-09-15T07:36:06.879Z,21.10
2022-09-15T07:38:34.928Z,21.10
2022-09-15T07:41:10.363Z,21.10
2022-09-15T07:43:38.073Z,21.10
2022-09-15T07:46:05.735Z,21.10
2022-09-15T07:48:33.136Z,21.10
2022-09-15T07:51:00.247Z,21.10
2022-09-15T07:53:30.688Z,21.10
2022-09-15T07:55:57.724Z,21.10
2022-09-15T07:58:25.368Z,21.20
2022-09-15T08:00:52.662Z,21.20
2022-09-15T08:03:19.720Z,21.10
2022-09-15T08:05:47.162Z,21.20
2022-09-15T08:08:14.248Z,21.20
2022-09-15T08:10:41.701Z,21.10
2022-09-15T08:13:08.815Z,21.20
2022-09-15T08:15:37.389Z,21.20
2022-09-15T08:18:05.448Z,21.20
2022-09-15T08:20:32.973Z,21.20
2022-09-15T08:23:00.314Z,21.20
2022-09-15T08:25:27.433Z,21.20
2022-09-15T08:27:56.213Z,21.20
2022-09-15T08:30:23.840Z,21.20
2022-09-15T08:32:51.268Z,21.20
2022-09-15T08:35:19.169Z,21.20
2022-09-15T08:37:46.969Z,21.20
2022-09-15T08:40:30.471Z,21.20
2022-09-15T08:43:03.349Z,21.30
2022-09-15T08:45:41.889Z,21.30
2022-09-15T08:48:15.851Z,21.20
2022-09-15T08:50:48.782Z,21.30
2022-09-15T08:53:21.801Z,21.20
2022-09-15T08:55:50.416Z,21.30
2022-09-15T08:58:21.124Z,21.20
2022-09-15T09:00:51.789Z,21.20
2022-09-15T09:03:36.435Z,21.30
2022-09-15T09:06:36.902Z,21.30
2022-09-15T09:09:42.261Z,21.30
2022-09-15T09:12:21.006Z,21.30
2022-09-15T09:15:15.909Z,21.30
2022-09-15T09:18:07.847Z,21.30
2022-09-15T09:20:51.355Z,21.30
2022-09-15T09:23:23.767Z,21.30
2022-09-15T09:25:52.112Z,21.30
2022-09-15T09:28:32.358Z,21.30
2022-09-15T09:31:07.042Z,21.20
2022-09-15T09:33:47.524Z,21.30
2022-09-15T09:36:15.283Z,21.30
2022-09-15T09:38:45.513Z,21.30
2022-09-15T09:41:16.911Z,21.20
2022-09-15T09:43:47.333Z,21.30
2022-09-15T09:46:18.048Z,21.30
2022-09-15T09:48:54.403Z,21.30
2022-09-15T09:51:52.763Z,21.30
2022-09-15T09:54:24.851Z,21.30
2022-09-15T09:56:53.555Z,21.30
2022-09-15T09:59:39.627Z,21.30
2022-09-15T10:02:20.599Z,21.30
2022-09-15T10:05:12.115Z,21.20
2022-09-15T10:07:45.460Z,21.10
2022-09-15T10:10:21.763Z,21.10
2022-09-15T10:12:50.292Z,21.10
2022-09-15T10:15:24.251Z,21.10
2022-09-15T10:17:55.092Z,21.10
2022-09-15T10:20:32.900Z,21.20
2022-09-15T10:23:30.057Z,21.20
2022-09-15T10:26:32.077Z,21.20
2022-09-15T10:29:17.421Z,21.20
2022-09-15T10:31:45.652Z,21.10
2022-09-15T10:34:30.631Z,21.10
2022-09-15T10:37:49.852Z,21.00
2022-09-15T10:40:32.866Z,20.90
2022-09-15T10:43:32.208Z,20.90
2022-09-15T10:46:05.361Z,20.90
2022-09-15T10:49:00.930Z,20.90
2022-09-15T10:51:54.407Z,21.00
2022-09-15T10:54:36.709Z,21.10
2022-09-15T11:00:13.029Z,21.10
2022-09-15T11:02:48.589Z,21.20
2022-09-15T11:05:32.176Z,21.10
2022-09-15T11:08:24.151Z,21.10
2022-09-15T11:11:07.498Z,21.10
2022-09-15T11:13:59.359Z,21.20
2022-09-15T11:16:50.493Z,21.20
2022-09-15T11:19:48.654Z,21.20
2022-09-15T11:22:29.648Z,21.20
2022-09-15T11:25:01.575Z,21.20
2022-09-15T11:27:37.193Z,21.20
2022-09-15T11:30:20.201Z,21.30
2022-09-15T11:32:58.514Z,21.20
2022-09-15T11:35:31.073Z,21.20
2022-09-15T11:38:22.173Z,21.10
2022-09-15T11:40:58.393Z,21.00
2022-09-15T11:43:34.494Z,21.00
2022-09-15T11:46:07.237Z,21.00
2022-09-15T11:48:45.171Z,21.10
2022-09-15T11:51:15.339Z,21.20
2022-09-15T11:54:12.235Z,21.20
2022-09-15T11:56:44.846Z,21.30
2022-09-15T11:59:18.655Z,21.30
2022-09-15T12:02:16.650Z,21.20
2022-09-15T12:05:26.207Z,21.20
2022-09-15T12:07:58.378Z,21.20
2022-09-15T12:10:31.667Z,21.30
2022-09-15T12:13:00.765Z,21.30
2022-09-15T12:15:28.260Z,21.30
2022-09-15T12:18:37.372Z,21.30
2022-09-15T12:21:27.751Z,21.20
2022-09-15T12:24:33.811Z,20.90
2022-09-15T12:27:02.261Z,21.00
2022-09-15T12:29:38.072Z,20.90
2022-09-15T12:32:28.973Z,20.90
2022-09-15T12:35:17.511Z,20.80
2022-09-15T12:37:53.515Z,20.80
2022-09-15T12:40:40.339Z,20.80
2022-09-15T12:43:13.368Z,20.80
2022-09-15T12:45:43.504Z,20.70
2022-09-15T12:48:27.517Z,20.70
2022-09-15T12:50:57.275Z,20.60
2022-09-15T12:56:10.304Z,20.70
2022-09-15T12:58:42.018Z,20.80
2022-09-15T13:01:18.785Z,20.90
2022-09-15T13:03:46.242Z,21.00
2022-09-15T13:06:20.988Z,21.10
2022-09-15T13:09:01.385Z,21.10
2022-09-15T13:11:36.955Z,21.10
2022-09-15T13:14:04.157Z,21.00
2022-09-15T13:16:48.604Z,20.90
2022-09-15T13:19:30.773Z,20.90
2022-09-15T13:22:07.567Z,20.90
2022-09-15T13:25:01.636Z,21.10
2022-09-15T13:27:44.921Z,21.20
2022-09-15T13:30:21.276Z,21.30
2022-09-15T13:39:59.569Z,21.60
2022-09-15T13:43:09.574Z,21.70
2022-09-15T13:46:13.244Z,21.70
2022-09-15T13:49:07.410Z,21.60
2022-09-15T13:51:36.478Z,21.50
2022-09-15T13:54:07.122Z,21.50
2022-09-15T13:56:41.162Z,21.40
2022-09-15T13:59:18.824Z,21.40
2022-09-15T14:01:46.286Z,21.40
2022-09-15T14:04:27.731Z,21.30
2022-09-15T14:07:00.199Z,21.30
2022-09-15T14:09:37.293Z,21.20
2022-09-15T14:12:09.986Z,21.10
2022-09-15T14:14:44.918Z,20.90
2022-09-15T14:17:32.931Z,20.90
2022-09-15T14:20:01.320Z,20.90
2022-09-15T14:22:31.049Z,20.90
2022-09-15T14:25:06.646Z,20.90
2022-09-15T14:27:36.423Z,20.80
2022-09-15T14:30:09.086Z,20.80
2022-09-15T14:32:39.831Z,20.80
2022-09-15T14:35:09.749Z,20.70
2022-09-15T14:37:37.009Z,20.70
2022-09-15T14:40:29.255Z,20.70
2022-09-15T14:42:56.401Z,20.70
2022-09-15T14:45:56.083Z,20.70
2022-09-15T14:48:28.021Z,20.70
2022-09-15T14:51:04.779Z,20.60
2022-09-15T14:53:35.452Z,20.50
2022-09-15T14:56:11.591Z,20.50
2022-09-15T14:58:47.716Z,20.40
2022-09-15T15:01:33.535Z,20.40
2022-09-15T15:04:16.396Z,20.30
2022-09-15T15:07:02.352Z,20.30
2022-09-15T15:09:43.932Z,20.30
2022-09-15T15:12:19.272Z,20.30
2022-09-15T15:14:46.669Z,20.40
2022-09-15T15:17:36.750Z,20.40
2022-09-15T15:20:09.576Z,20.40
2022-09-15T15:22:42.140Z,20.40
2022-09-15T15:25:29.625Z,20.30
2022-09-15T15:27:58.436Z,20.10
2022-09-15T15:30:29.389Z,20.00
2022-09-15T15:33:01.086Z,19.80
2022-09-15T15:35:29.922Z,19.70
2022-09-15T15:38:26.974Z,19.70
2022-09-15T15:41:10.473Z,19.70
2022-09-15T15:43:37.677Z,19.70
2022-09-15T15:46:07.427Z,19.70
2022-09-15T15:48:38.357Z,19.70
2022-09-15T15:51:07.315Z,19.70
2022-09-15T15:53:34.849Z,19.70
2022-09-15T15:56:02.119Z,19.70
2022-09-15T15:58:29.147Z,19.70
2022-09-15T16:00:57.257Z,19.70
2022-09-15T16:03:25.487Z,19.70
2022-09-15T16:05:56.715Z,19.70
2022-09-15T16:08:31.982Z,19.70
2022-09-15T16:11:01.415Z,19.70
2022-09-15T16:13:29.590Z,19.70
2022-09-15T16:15:58.207Z,19.70
2022-09-15T16:18:25.416Z,19.70
2022-09-15T16:20:53.598Z,19.70
2022-09-15T16:23:22.753Z,19.70
2022-09-15T16:25:59.654Z,19.70
2022-09-15T16:28:26.747Z,19.70
2022-09-15T16:30:53.910Z,19.70
2022-09-15T16:33:21.218Z,19.70
2022-09-15T16:35:55.503Z,19.70
2022-09-15T16:38:25.706Z,19.70
2022-09-15T16:40:52.748Z,19.80
